Time;durP1;ratioP1;P1;durP2;ratioP2;P2;SDS_P1;SDS_P2;PMS_P1;PMS_P2;Temp;Humidity;BMP_temperature;BMP_pressure;BME280_temperature;BME280_humidity;BME280_pressure;Samples;Min_cycle;Max_cycle;Signal;HPM_P1;HPM_P2
2024/03/12 00:00:22;;;;;;;2.92;1.33;;;;;;;10.02;100.00;99462.63;5041483;28;20462;-74
2024/03/12 00:02:50;;;;;;;1.42;1.10;;;;;;;10.04;100.00;99455.19;5058063;28;20104;-74
2024/03/12 00:05:18;;;;;;;1.30;0.93;;;;;;;10.10;100.00;99460.56;5057972;28;20040;-74
2024/03/12 00:07:45;;;;;;;1.88;0.80;;;;;;;10.12;100.00;99453.13;5041454;28;20098;-74
2024/03/12 00:10:16;;;;;;;3.45;0.90;;;;;;;10.16;100.00;99450.88;5041154;28;20493;-75
2024/03/12 00:12:52;;;;;;;3.42;1.33;;;;;;;10.19;100.00;99452.28;5058024;28;20482;-74
2024/03/12 00:15:19;;;;;;;1.00;0.90;;;;;;;10.18;100.00;99447.97;5041159;28;20467;-74
2024/03/12 00:17:45;;;;;;;2.47;1.00;;;;;;;10.21;100.00;99450.25;5074258;28;20119;-74
2024/03/12 00:20:17;;;;;;;1.60;0.98;;;;;;;10.22;100.00;99449.22;5073882;28;20534;-75
2024/03/12 00:22:47;;;;;;;3.17;1.20;;;;;;;10.21;100.00;99452.94;5058258;28;20029;-74
2024/03/12 00:25:14;;;;;;;0.80;0.70;;;;;;;10.20;100.00;99451.28;5073795;28;20474;-74
2024/03/12 00:27:40;;;;;;;4.38;1.08;;;;;;;10.22;100.00;99444.69;5041736;28;20035;-75
2024/03/12 00:30:10;;;;;;;1.55;1.00;;;;;;;10.24;100.00;99447.13;5040893;28;20371;-75
2024/03/12 00:32:38;;;;;;;1.13;0.63;;;;;;;10.28;100.00;99449.25;5041196;28;20038;-75
2024/03/12 00:35:05;;;;;;;2.05;0.60;;;;;;;10.27;100.00;99444.06;5040684;28;20071;-75
2024/03/12 00:37:31;;;;;;;0.70;0.70;;;;;;;10.28;100.00;99445.75;5040970;28;20032;-74
2024/03/12 00:39:57;;;;;;;2.88;1.30;;;;;;;10.26;100.00;99450.44;5057170;28;20123;-74
2024/03/12 00:42:22;;;;;;;0.63;0.63;;;;;;;10.25;100.00;99446.13;5073756;28;20111;-74
2024/03/12 00:44:49;;;;;;;0.43;0.43;;;;;;;10.23;100.00;99440.94;5040691;28;20087;-74
2024/03/12 00:47:14;;;;;;;0.50;0.50;;;;;;;10.22;100.00;99443.84;5040108;28;20455;-75
2024/03/12 00:49:40;;;;;;;0.82;0.80;;;;;;;10.20;100.00;99437.84;5057093;28;20056;-74
2024/03/12 00:52:06;;;;;;;0.70;0.70;;;;;;;10.13;100.00;99446.75;5057038;28;20091;-75
2024/03/12 00:54:35;;;;;;;0.80;0.73;;;;;;;10.05;100.00;99441.53;5040469;28;20445;-75
2024/03/12 00:57:02;;;;;;;0.45;0.45;;;;;;;9.84;100.00;99449.75;5040706;28;20127;-75
2024/03/12 00:59:29;;;;;;;4.85;1.35;;;;;;;9.59;100.00;99450.31;5072987;28;20082;-76
2024/03/12 01:01:55;;;;;;;1.00;0.50;;;;;;;9.36;100.00;99441.78;5040236;28;20032;-75
2024/03/12 01:04:21;;;;;;;0.95;0.70;;;;;;;9.22;100.00;99441.72;5056809;28;20024;-75
2024/03/12 01:06:49;;;;;;;1.58;0.88;;;;;;;9.09;100.00;99438.97;5040308;28;20032;-75
2024/03/12 01:09:17;;;;;;;1.40;0.70;;;;;;;8.94;100.00;99438.25;5056658;28;20025;-75
2024/03/12 01:11:46;;;;;;;1.42;0.52;;;;;;;8.84;100.00;99435.09;5056683;28;20037;-75
2024/03/12 01:14:12;;;;;;;0.50;0.50;;;;;;;8.76;100.00;99433.44;5039900;28;20436;-75
2024/03/12 01:16:38;;;;;;;1.38;0.63;;;;;;;8.68;100.00;99436.25;5040169;28;20048;-75
2024/03/12 01:19:07;;;;;;;2.15;0.77;;;;;;;8.61;100.00;99435.38;5072491;28;20028;-75
2024/03/12 01:21:35;;;;;;;0.50;0.50;;;;;;;8.61;100.00;99438.88;5072909;28;20059;-75
2024/03/12 01:24:04;;;;;;;0.40;0.40;;;;;;;8.56;100.00;99449.34;5040038;28;20461;-75
2024/03/12 01:26:30;;;;;;;1.67;0.75;;;;;;;8.51;100.00;99449.13;5039853;28;20139;-75
2024/03/12 01:28:56;;;;;;;2.88;1.23;;;;;;;8.42;100.00;99452.97;5039810;28;20028;-75
2024/03/12 01:31:22;;;;;;;0.50;0.50;;;;;;;8.37;100.00;99458.88;5039865;28;20033;-75
2024/03/12 01:33:49;;;;;;;3.28;0.70;;;;;;;8.32;100.00;99462.13;5040325;28;20028;-75
2024/03/12 01:36:20;;;;;;;0.50;0.50;;;;;;;8.31;100.00;99456.97;5056369;28;20429;-74
2024/03/12 01:38:49;;;;;;;1.50;0.60;;;;;;;8.25;100.00;99461.22;5072924;28;20021;-74
2024/03/12 01:41:18;;;;;;;0.95;0.52;;;;;;;8.17;100.00;99458.69;5073745;28;20032;-75
2024/03/12 01:43:43;;;;;;;1.92;0.85;;;;;;;8.12;100.00;99458.41;5072164;28;20036;-75
2024/03/12 01:46:12;;;;;;;1.15;0.60;;;;;;;8.06;100.00;99459.19;5056166;28;20078;-75
2024/03/12 01:48:40;;;;;;;2.50;1.08;;;;;;;8.02;100.00;99464.13;5056152;28;20101;-75
2024/03/12 01:51:06;;;;;;;1.35;0.73;;;;;;;8.03;100.00;99460.41;5039852;28;20028;-75
2024/03/12 01:53:33;;;;;;;4.82;0.90;;;;;;;8.06;100.00;99461.88;5039567;28;20048;-75
2024/03/12 01:56:00;;;;;;;0.60;0.55;;;;;;;8.02;100.00;99461.44;5039262;28;20032;-75
2024/03/12 01:58:26;;;;;;;1.75;0.55;;;;;;;8.02;100.00;99466.78;5039265;28;20391;-75
2024/03/12 02:00:54;;;;;;;0.82;0.80;;;;;;;7.99;100.00;99461.84;5039952;28;20039;-75
2024/03/12 02:03:19;;;;;;;1.20;0.70;;;;;;;7.95;100.00;99468.56;5038916;28;20111;-75
2024/03/12 02:05:46;;;;;;;1.83;0.85;;;;;;;7.90;100.00;99471.81;5055616;28;20031;-75
2024/03/12 02:08:13;;;;;;;0.40;0.40;;;;;;;7.91;100.00;99472.63;5039338;28;20119;-75
2024/03/12 02:10:38;;;;;;;0.50;0.50;;;;;;;7.98;100.00;99483.41;5072401;28;20020;-75
2024/03/12 02:13:04;;;;;;;0.60;0.60;;;;;;;8.12;100.00;99478.03;5039188;28;20141;-75
2024/03/12 02:15:30;;;;;;;0.95;0.70;;;;;;;8.24;100.00;99483.69;5039053;28;20032;-75
2024/03/12 02:17:56;;;;;;;0.90;0.68;;;;;;;8.29;100.00;99483.09;5073505;28;20113;-75
2024/03/12 02:20:22;;;;;;;4.25;1.23;;;;;;;8.34;100.00;99476.16;5039195;28;20083;-74
2024/03/12 02:22:47;;;;;;;4.15;0.80;;;;;;;8.33;100.00;99476.34;5038680;28;20032;-77
2024/03/12 02:25:13;;;;;;;3.25;1.05;;;;;;;8.34;100.00;99481.50;5039174;28;20032;-75
2024/03/12 02:27:42;;;;;;;5.93;1.50;;;;;;;8.32;100.00;99474.69;5039096;28;20445;-75
2024/03/12 02:30:09;;;;;;;9.13;0.85;;;;;;;8.37;100.00;99485.66;5039470;28;20035;-75
2024/03/12 02:32:36;;;;;;;3.22;0.98;;;;;;;8.36;100.00;99492.00;5041091;28;20081;-76
2024/03/12 02:35:02;;;;;;;1.88;0.98;;;;;;;8.31;100.00;99479.22;5076242;28;20052;-75
2024/03/12 02:37:28;;;;;;;2.70;1.05;;;;;;;8.34;100.00;99492.22;5059348;28;20111;-75
2024/03/12 02:39:54;;;;;;;3.67;1.30;;;;;;;8.35;100.00;99495.72;5076048;28;20471;-75
2024/03/12 02:42:20;;;;;;;7.50;1.48;;;;;;;8.35;100.00;99488.50;5042801;28;20115;-75
2024/03/12 02:44:45;;;;;;;7.35;1.80;;;;;;;8.35;100.00;99488.50;5059566;28;20071;-75
2024/03/12 02:47:11;;;;;;;10.35;1.30;;;;;;;8.33;100.00;99493.22;5042812;28;20064;-75
2024/03/12 02:49:37;;;;;;;1.73;1.00;;;;;;;8.31;100.00;99481.06;5042853;28;20032;-75
2024/03/12 02:52:03;;;;;;;1.75;0.80;;;;;;;8.32;100.00;99488.06;5042870;28;20039;-75
2024/03/12 02:54:29;;;;;;;0.70;0.57;;;;;;;8.27;100.00;99480.59;5059102;28;20039;-75
2024/03/12 02:56:54;;;;;;;3.08;0.82;;;;;;;8.26;100.00;99488.84;5042641;28;20037;-75
2024/03/12 02:59:21;;;;;;;2.95;0.80;;;;;;;8.22;100.00;99476.84;5042868;28;20097;-75
2024/03/12 03:01:47;;;;;;;4.10;1.65;;;;;;;8.21;100.00;99489.41;5058691;28;20383;-75
2024/03/12 03:04:12;;;;;;;1.77;0.90;;;;;;;8.20;100.00;99490.41;5042604;28;20094;-75
2024/03/12 03:06:38;;;;;;;5.93;1.05;;;;;;;8.19;100.00;99495.97;5059038;28;20033;-75
2024/03/12 03:09:09;;;;;;;5.65;1.25;;;;;;;8.18;100.00;99488.94;5042507;28;20028;-75
2024/03/12 03:11:35;;;;;;;4.28;0.85;;;;;;;8.16;100.00;99489.16;5043002;28;20089;-75
2024/03/12 03:14:01;;;;;;;1.65;0.73;;;;;;;8.18;100.00;99492.50;5058906;28;20059;-75
2024/03/12 03:16:31;;;;;;;4.68;1.10;;;;;;;8.19;100.00;99477.25;5058802;28;20115;-74
2024/03/12 03:18:57;;;;;;;3.95;1.15;;;;;;;8.18;100.00;99486.28;5059091;28;20116;-75
2024/03/12 03:21:26;;;;;;;3.92;2.08;;;;;;;8.20;100.00;99492.28;5058386;28;20040;-75
2024/03/12 03:23:52;;;;;;;2.20;0.93;;;;;;;8.15;100.00;99480.31;5042276;28;20094;-75
2024/03/12 03:26:18;;;;;;;3.58;1.02;;;;;;;8.12;100.00;99488.72;5042037;28;20032;-75
2024/03/12 03:28:44;;;;;;;1.90;0.65;;;;;;;8.09;100.00;99489.09;5042191;28;20043;-75
2024/03/12 03:31:13;;;;;;;6.28;1.02;;;;;;;8.07;100.00;99491.16;5058558;28;20041;-75
2024/03/12 03:33:40;;;;;;;2.42;0.95;;;;;;;8.06;100.00;99486.78;5074896;28;20479;-75
2024/03/12 03:36:06;;;;;;;0.40;0.40;;;;;;;8.04;100.00;99493.34;5074748;28;20097;-75
2024/03/12 03:38:33;;;;;;;2.30;0.90;;;;;;;8.04;100.00;99488.81;5042181;28;20551;-75
2024/03/12 03:40:59;;;;;;;1.50;0.60;;;;;;;8.02;100.00;99498.91;5058333;28;20040;-74
2024/03/12 03:43:24;;;;;;;0.40;0.40;;;;;;;8.01;100.00;99494.56;5041047;28;20029;-75
2024/03/12 03:45:50;;;;;;;0.90;0.90;;;;;;;8.03;100.00;99491.72;5041667;28;20038;-76
2024/03/12 03:48:15;;;;;;;1.70;0.70;;;;;;;8.00;100.00;99498.28;5041723;28;20039;-75
2024/03/12 03:50:41;;;;;;;2.17;0.90;;;;;;;8.06;100.00;99494.00;5058354;28;20028;-75
2024/03/12 03:53:08;;;;;;;1.45;0.95;;;;;;;8.04;100.00;99496.03;5058001;28;20032;-75
2024/03/12 03:55:34;;;;;;;0.68;0.68;;;;;;;8.05;100.00;99497.72;5074424;28;20032;-75
2024/03/12 03:58:00;;;;;;;11.63;2.65;;;;;;;8.02;100.00;99490.03;5041557;28;20039;-75
2024/03/12 04:00:30;;;;;;;0.47;0.47;;;;;;;8.07;100.00;99501.84;5041590;28;20033;-75
2024/03/12 04:02:56;;;;;;;0.70;0.47;;;;;;;8.08;100.00;99508.03;5041881;28;20064;-75
2024/03/12 04:05:22;;;;;;;6.95;1.35;;;;;;;8.07;100.00;99511.72;5074011;28;20036;-75
2024/03/12 04:07:49;;;;;;;1.85;0.60;;;;;;;8.06;100.00;99500.19;5057504;28;20036;-75
2024/03/12 04:10:15;;;;;;;1.30;0.95;;;;;;;8.08;100.00;99508.03;5057930;28;20024;-75
2024/03/12 04:12:47;;;;;;;4.57;1.20;;;;;;;8.09;100.00;99498.97;5041090;28;20441;-75
2024/03/12 04:15:13;;;;;;;0.90;0.50;;;;;;;8.08;100.00;99505.34;5058157;28;20044;-75
2024/03/12 04:17:39;;;;;;;3.00;0.70;;;;;;;8.08;100.00;99513.38;5040992;28;20036;-74
2024/03/12 04:20:09;;;;;;;0.70;0.55;;;;;;;8.06;100.00;99510.88;5041138;28;20028;-75
2024/03/12 04:22:38;;;;;;;3.92;0.80;;;;;;;8.06;100.00;99518.09;5058464;28;20045;-75
2024/03/12 04:25:08;;;;;;;0.55;0.50;;;;;;;8.06;100.00;99518.91;5041070;28;20027;-75
2024/03/12 04:27:37;;;;;;;0.60;0.60;;;;;;;8.08;100.00;99526.78;5074154;28;20032;-75
2024/03/12 04:30:06;;;;;;;0.70;0.70;;;;;;;8.08;100.00;99526.78;5057856;28;20040;-75
2024/03/12 04:32:32;;;;;;;0.40;0.40;;;;;;;8.09;100.00;99534.59;5057474;28;20040;-75
2024/03/12 04:34:58;;;;;;;1.00;0.77;;;;;;;8.12;100.00;99539.59;5040750;28;20029;-76
2024/03/12 04:37:23;;;;;;;0.57;0.57;;;;;;;8.14;100.00;99526.81;5040697;28;20029;-75
2024/03/12 04:39:49;;;;;;;0.60;0.50;;;;;;;8.13;100.00;99530.53;5040797;28;20039;-75
2024/03/12 04:42:15;;;;;;;0.40;0.40;;;;;;;8.12;100.00;99530.72;5040599;28;20174;-75
2024/03/12 04:44:42;;;;;;;1.90;0.77;;;;;;;8.17;100.00;99543.53;5073810;28;20024;-75
2024/03/12 04:47:09;;;;;;;0.70;0.70;;;;;;;8.15;100.00;99544.56;5040489;28;20040;-76
2024/03/12 04:49:37;;;;;;;0.68;0.68;;;;;;;8.15;100.00;99547.25;5057307;28;20071;-75
2024/03/12 04:52:03;;;;;;;0.60;0.60;;;;;;;8.15;100.00;99543.75;5040627;28;20387;-75
2024/03/12 04:54:29;;;;;;;0.93;0.80;;;;;;;8.14;100.00;99536.72;5039723;28;20467;-75
2024/03/12 04:56:56;;;;;;;2.17;0.77;;;;;;;8.13;100.00;99543.09;5040429;28;20040;-75
2024/03/12 04:59:22;;;;;;;0.85;0.60;;;;;;;8.15;100.00;99546.44;5040783;28;20062;-75
2024/03/12 05:01:49;;;;;;;5.80;0.90;;;;;;;8.14;100.00;99550.09;5056949;28;20036;-76
2024/03/12 05:04:16;;;;;;;0.70;0.70;;;;;;;8.15;100.00;99557.13;5056593;28;20025;-75
2024/03/12 05:06:41;;;;;;;0.68;0.68;;;;;;;8.12;100.00;99549.44;5073152;28;20531;-75
2024/03/12 05:09:08;;;;;;;0.40;0.40;;;;;;;8.06;100.00;99552.91;5040126;28;20123;-75
2024/03/12 05:11:34;;;;;;;0.50;0.50;;;;;;;8.04;100.00;99566.47;5040374;28;20055;-75
2024/03/12 05:14:00;;;;;;;0.43;0.43;;;;;;;8.05;100.00;99564.63;5040199;28;20476;-75
2024/03/12 05:16:26;;;;;;;0.55;0.55;;;;;;;8.06;100.00;99556.41;5040116;28;20032;-75
2024/03/12 05:18:53;;;;;;;1.25;1.25;;;;;;;8.05;100.00;99565.47;5056538;28;20037;-75
2024/03/12 05:21:19;;;;;;;0.65;0.45;;;;;;;8.06;100.00;99566.28;5039962;28;20378;-75
2024/03/12 05:23:44;;;;;;;0.50;0.50;;;;;;;8.06;100.00;99571.63;5056195;28;20040;-75
2024/03/12 05:26:11;;;;;;;0.77;0.75;;;;;;;8.04;100.00;99571.81;5040215;28;20032;-75
2024/03/12 05:28:37;;;;;;;1.20;0.90;;;;;;;8.06;100.00;99577.00;5056748;28;20035;-76
2024/03/12 05:31:03;;;;;;;2.08;0.70;;;;;;;8.05;100.00;99576.16;5039823;28;20032;-75
2024/03/12 05:33:30;;;;;;;0.70;0.60;;;;;;;8.04;100.00;99574.50;5039692;28;20036;-75
2024/03/12 05:35:56;;;;;;;0.90;0.90;;;;;;;8.04;100.00;99579.03;5072882;28;20029;-75
2024/03/12 05:38:32;;;;;;;2.53;0.73;;;;;;;8.03;100.00;99588.09;5056323;28;20485;-75
2024/03/12 05:49:08;;;;;;;0.65;0.65;;;;;;;8.03;100.00;99583.56;5072557;28;20038;-75
2024/03/12 05:51:36;;;;;;;0.80;0.80;;;;;;;8.04;100.00;99606.63;5055551;28;20070;-75
2024/03/12 05:54:01;;;;;;;5.20;0.90;;;;;;;8.06;100.00;99596.56;5039816;28;20111;-75
2024/03/12 05:56:29;;;;;;;0.50;0.50;;;;;;;8.07;100.00;99605.41;5039322;28;20123;-75
2024/03/12 05:58:54;;;;;;;0.50;0.50;;;;;;;8.08;100.00;99607.09;5055924;28;20383;-75
2024/03/12 06:01:23;;;;;;;1.77;0.70;;;;;;;8.07;100.00;99605.41;5039079;28;20033;-75
2024/03/12 06:03:53;;;;;;;0.50;0.50;;;;;;;8.08;100.00;99613.28;5039974;28;20032;-75
2024/03/12 06:06:19;;;;;;;3.58;1.00;;;;;;;8.08;100.00;99621.31;5071968;28;20497;-75
2024/03/12 06:08:45;;;;;;;2.90;1.30;;;;;;;8.09;100.00;99611.41;5055229;28;20028;-76
2024/03/12 06:11:12;;;;;;;1.95;0.68;;;;;;;8.10;100.00;99605.06;5039323;28;20035;-75
2024/03/12 06:13:38;;;;;;;1.30;0.70;;;;;;;8.10;100.00;99613.09;5055667;28;20060;-76
2024/03/12 06:16:07;;;;;;;1.08;0.98;;;;;;;8.11;100.00;99612.06;5039222;28;20098;-75
2024/03/12 06:18:33;;;;;;;0.50;0.50;;;;;;;8.10;100.00;99613.91;5072265;28;20093;-75
2024/03/12 06:20:59;;;;;;;3.20;1.10;;;;;;;8.10;100.00;99621.13;5038895;28;20063;-76
2024/03/12 06:23:25;;;;;;;0.63;0.63;;;;;;;8.12;100.00;99622.59;5038911;28;20064;-76
2024/03/12 06:25:51;;;;;;;0.70;0.70;;;;;;;8.11;100.00;99628.13;5055889;28;20049;-75
2024/03/12 06:28:20;;;;;;;1.20;0.77;;;;;;;8.10;100.00;99629.97;5039082;28;20044;-75
2024/03/12 06:30:48;;;;;;;0.60;0.60;;;;;;;8.08;100.00;99628.50;5072184;28;20056;-75
2024/03/12 06:33:17;;;;;;;1.63;0.95;;;;;;;8.06;100.00;99631.34;5039580;28;20040;-76
2024/03/12 06:35:43;;;;;;;1.45;0.70;;;;;;;8.06;100.00;99633.22;5071944;28;20487;-75
2024/03/12 06:38:09;;;;;;;0.50;0.50;;;;;;;8.06;100.00;99638.56;5039259;28;20537;-75
2024/03/12 06:40:34;;;;;;;1.50;1.23;;;;;;;8.07;100.00;99637.53;5038843;28;20037;-75
2024/03/12 06:43:33;;;;;;;0.57;0.57;;;;;;;8.08;100.00;99640.03;5038712;28;20521;-76
2024/03/12 06:46:19;;;;;;;1.35;0.77;;;;;;;8.09;100.00;99649.72;5056790;28;20051;-75
2024/03/12 06:48:46;;;;;;;0.60;0.60;;;;;;;8.12;100.00;99645.84;5038750;28;20036;-75
2024/03/12 06:51:12;;;;;;;0.82;0.80;;;;;;;8.14;100.00;99667.91;5055056;28;20036;-75
2024/03/12 06:53:37;;;;;;;1.20;0.65;;;;;;;8.13;100.00;99671.63;5039063;28;20037;-75
2024/03/12 06:56:07;;;;;;;1.70;0.82;;;;;;;8.14;100.00;99666.06;5055074;28;20392;-77
2024/03/12 06:58:32;;;;;;;0.52;0.52;;;;;;;8.14;100.00;99663.38;5039137;28;20146;-75
2024/03/12 07:00:58;;;;;;;0.98;0.70;;;;;;;8.10;100.00;99654.06;5038897;28;20139;-75
2024/03/12 07:03:24;;;;;;;1.13;1.02;;;;;;;8.12;100.00;99661.91;5071854;28;20367;-77
2024/03/12 07:05:50;;;;;;;1.33;0.80;;;;;;;8.09;100.00;99657.75;5071449;28;20024;-75
2024/03/12 07:08:17;;;;;;;0.70;0.70;;;;;;;8.09;100.00;99663.09;5054726;28;20040;-75
2024/03/12 07:10:45;;;;;;;0.50;0.50;;;;;;;8.09;100.00;99692.56;5038773;28;20043;-75
2024/03/12 07:13:12;;;;;;;5.45;0.82;;;;;;;8.11;100.00;99695.88;5055093;28;20122;-75
2024/03/12 07:15:39;;;;;;;0.40;0.40;;;;;;;8.15;100.00;99693.69;5038645;28;20082;-75
2024/03/12 07:18:08;;;;;;;1.15;0.60;;;;;;;8.17;100.00;99698.84;5073002;28;20031;-76
2024/03/12 07:20:36;;;;;;;0.98;0.77;;;;;;;8.15;100.00;99691.84;5058932;28;20044;-75
2024/03/12 07:23:03;;;;;;;1.65;0.93;;;;;;;8.18;100.00;99704.03;5042366;28;20045;-75
2024/03/12 07:25:30;;;;;;;0.47;0.47;;;;;;;8.19;100.00;99715.56;5058559;28;20059;-75
2024/03/12 07:28:06;;;;;;;0.50;0.50;;;;;;;8.21;100.00;99710.84;5042446;28;20040;-75
2024/03/12 07:30:32;;;;;;;1.05;0.70;;;;;;;8.22;100.00;99712.50;5042732;28;20036;-75
2024/03/12 07:32:58;;;;;;;3.35;0.70;;;;;;;8.28;100.00;99709.94;5075549;28;20071;-75
2024/03/12 07:35:24;;;;;;;0.68;0.68;;;;;;;8.34;100.00;99709.16;5043047;28;20072;-75
2024/03/12 07:37:49;;;;;;;1.02;0.55;;;;;;;8.36;100.00;99707.13;5041897;28;20089;-75
2024/03/12 07:40:15;;;;;;;0.50;0.50;;;;;;;8.38;100.00;99717.66;5042006;28;20483;-75
2024/03/12 07:42:44;;;;;;;1.92;1.27;;;;;;;8.39;100.00;99727.41;5041542;28;20064;-75
2024/03/12 07:45:11;;;;;;;5.70;0.80;;;;;;;8.41;100.00;99721.84;5057738;28;20375;-75
2024/03/12 07:47:40;;;;;;;5.20;0.80;;;;;;;8.45;100.00;99721.28;5041263;28;20068;-75
2024/03/12 07:50:08;;;;;;;2.08;0.60;;;;;;;8.45;100.00;99717.78;5058603;28;20036;-75
2024/03/12 07:52:36;;;;;;;0.80;0.80;;;;;;;8.52;100.00;99724.03;5041633;28;20097;-75
2024/03/12 07:55:02;;;;;;;1.02;0.80;;;;;;;8.58;100.00;99720.63;5041032;28;20444;-75
2024/03/12 07:57:31;;;;;;;0.98;0.88;;;;;;;8.66;100.00;99723.19;5041152;28;20060;-75
2024/03/12 07:59:58;;;;;;;3.40;0.63;;;;;;;8.75;100.00;99716.66;5059146;28;20032;-75
2024/03/12 08:02:24;;;;;;;1.10;0.70;;;;;;;8.85;100.00;99723.59;5058084;28;20106;-75
2024/03/12 08:04:50;;;;;;;0.68;0.68;;;;;;;9.00;100.00;99719.00;5041610;28;20475;-75
2024/03/12 08:07:19;;;;;;;7.20;1.10;;;;;;;9.18;100.00;99731.94;5057581;28;20455;-76
2024/03/12 08:09:46;;;;;;;2.28;0.82;;;;;;;9.17;100.00;99720.41;5041503;28;20039;-76
2024/03/12 08:12:13;;;;;;;5.05;1.05;;;;;;;9.22;100.00;99727.88;5041303;28;20044;-75
2024/03/12 08:14:41;;;;;;;1.85;0.60;;;;;;;9.12;100.00;99722.81;5058128;28;20033;-75
2024/03/12 08:17:07;;;;;;;1.92;0.63;;;;;;;9.09;100.00;99728.56;5041861;28;20036;-75
2024/03/12 08:19:34;;;;;;;1.10;0.60;;;;;;;9.08;100.00;99718.88;5057842;28;20033;-75
2024/03/12 08:22:00;;;;;;;0.47;0.47;;;;;;;9.09;100.00;99725.06;5057628;28;20036;-74
2024/03/12 08:24:26;;;;;;;2.63;0.52;;;;;;;9.08;100.00;99723.41;5057287;28;20467;-75
2024/03/12 08:26:52;;;;;;;0.88;0.88;;;;;;;9.10;100.00;99729.41;5073920;28;20052;-75
2024/03/12 08:29:18;;;;;;;0.63;0.55;;;;;;;9.19;100.00;99730.94;5040475;28;20080;-75
2024/03/12 08:31:44;;;;;;;0.50;0.50;;;;;;;9.29;100.00;99725.25;5041029;28;20036;-75
2024/03/12 08:34:14;;;;;;;0.70;0.70;;;;;;;9.37;100.00;99735.88;5040981;28;20032;-75
2024/03/12 08:36:40;;;;;;;0.98;0.70;;;;;;;9.45;100.00;99731.19;5058121;28;20024;-75
2024/03/12 08:39:05;;;;;;;1.65;0.82;;;;;;;9.49;100.00;99739.66;5073627;28;20390;-75
2024/03/12 08:41:32;;;;;;;0.60;0.60;;;;;;;9.51;100.00;99734.94;5040753;28;20036;-75
2024/03/12 08:43:58;;;;;;;0.77;0.77;;;;;;;9.49;100.00;99741.53;5073909;28;20379;-75
2024/03/12 08:46:24;;;;;;;1.17;0.50;;;;;;;9.41;100.00;99747.84;5040754;28;20032;-75
2024/03/12 08:48:52;;;;;;;1.27;0.70;;;;;;;9.23;100.00;99740.25;5040770;28;20051;-75
2024/03/12 08:51:18;;;;;;;0.70;0.70;;;;;;;9.12;100.00;99741.59;5057023;28;20039;-75
2024/03/12 08:53:44;;;;;;;1.85;1.10;;;;;;;9.20;100.00;99737.97;5056382;28;20024;-75
2024/03/12 08:56:09;;;;;;;1.20;0.95;;;;;;;9.23;100.00;99748.31;5073511;28;20029;-75
2024/03/12 08:58:36;;;;;;;0.60;0.60;;;;;;;9.34;100.00;99746.94;5040288;28;20047;-75
2024/03/12 09:01:02;;;;;;;1.35;1.00;;;;;;;9.61;100.00;99745.34;5057096;28;20111;-76
2024/03/12 09:03:30;;;;;;;0.50;0.50;;;;;;;9.72;100.00;99746.66;5072891;28;20020;-75
2024/03/12 09:05:57;;;;;;;4.25;1.08;;;;;;;9.67;100.00;99747.25;5040355;28;20111;-75
2024/03/12 09:08:24;;;;;;;0.60;0.60;;;;;;;9.56;100.00;99740.56;5056548;28;20028;-75
2024/03/12 09:10:49;;;;;;;0.82;0.80;;;;;;;9.63;100.00;99732.53;5056745;28;20039;-75
2024/03/12 09:13:21;;;;;;;2.70;1.20;;;;;;;9.75;100.00;99736.38;5056219;28;20028;-75
2024/03/12 09:15:51;;;;;;;2.10;0.90;;;;;;;9.77;100.00;99736.19;5040921;28;20064;-75
2024/03/12 09:18:20;;;;;;;2.97;0.90;;;;;;;9.66;100.00;99735.69;5040652;28;20070;-75
2024/03/12 09:20:47;;;;;;;5.43;1.00;;;;;;;9.55;100.00;99746.09;5040298;28;20028;-76
2024/03/12 09:23:13;;;;;;;1.75;1.20;;;;;;;9.58;100.00;99737.66;5056600;28;20036;-75
2024/03/12 09:25:41;;;;;;;3.75;1.52;;;;;;;9.76;100.00;99724.59;5056210;28;20409;-75
2024/03/12 09:28:07;;;;;;;6.82;1.45;;;;;;;9.84;100.00;99735.19;5056409;28;20028;-75
2024/03/12 09:30:37;;;;;;;6.25;1.27;;;;;;;9.78;100.00;99735.13;5039942;28;20083;-75
2024/03/12 09:33:04;;;;;;;4.65;1.65;;;;;;;9.93;100.00;99727.00;5072714;28;20024;-75
2024/03/12 09:38:59;;;;;;;4.25;1.23;;;;;;;9.98;100.00;99728.06;5055459;28;20114;-75
2024/03/12 09:41:26;;;;;;;4.63;1.37;;;;;;;10.01;100.00;99732.22;5039418;28;20391;-76
2024/03/12 09:43:53;;;;;;;4.25;1.98;;;;;;;9.94;100.00;99737.53;5038856;28;20668;-75
2024/03/12 09:46:20;;;;;;;5.18;2.38;;;;;;;10.01;100.00;99734.88;5039729;28;20060;-75
2024/03/12 09:48:46;;;;;;;8.70;1.88;;;;;;;10.08;100.00;99727.69;5039435;28;20090;-75
2024/03/12 09:55:37;;;;;;;;;;;;;;;;;;;;;
2024/03/12 09:58:24;;;;;;;5.00;1.67;;;;;;;9.69;100.00;99737.16;5067516;28;20044;-75
2024/03/12 10:00:51;;;;;;;1.90;1.70;;;;;;;9.61;100.00;99746.19;5055909;28;20039;-75
2024/03/12 10:03:19;;;;;;;2.35;1.33;;;;;;;9.52;100.00;99739.28;5039154;28;20035;-75
2024/03/12 10:05:46;;;;;;;3.58;2.20;;;;;;;9.71;100.00;99742.31;5039118;28;20465;-75
2024/03/12 10:08:13;;;;;;;2.20;1.55;;;;;;;9.82;100.00;99747.16;5039006;28;20028;-75
2024/03/12 10:10:55;;;;;;;2.22;1.17;;;;;;;9.91;100.00;99744.13;5055298;28;20509;-75
2024/03/12 10:13:24;;;;;;;3.45;1.15;;;;;;;10.21;100.00;99740.38;5056483;28;20082;-77
2024/03/12 10:16:01;;;;;;;2.42;1.30;;;;;;;10.21;100.00;99738.50;5039278;28;20032;-75
2024/03/12 10:18:29;;;;;;;1.13;1.00;;;;;;;10.13;100.00;99738.66;5056263;28;20039;-75
2024/03/12 10:21:00;;;;;;;1.55;1.20;;;;;;;10.12;100.00;99735.16;5055439;28;20036;-75
2024/03/12 10:23:36;;;;;;;2.33;1.65;;;;;;;10.14;100.00;99745.72;5055579;28;20039;-76
2024/03/12 10:26:11;;;;;;;3.85;1.25;;;;;;;10.09;100.00;99742.78;5055642;28;20032;-75
2024/03/12 10:28:38;;;;;;;1.70;1.45;;;;;;;9.90;100.00;99742.47;5055741;28;20040;-75
2024/03/12 10:31:08;;;;;;;0.85;0.85;;;;;;;9.86;100.00;99740.34;5055408;28;20033;-75
2024/03/12 10:33:36;;;;;;;4.03;1.38;;;;;;;9.93;100.00;99735.88;5055574;28;20070;-75
2024/03/12 10:36:04;;;;;;;1.85;0.98;;;;;;;9.82;100.00;99749.84;5071711;28;20037;-75
2024/03/12 10:38:32;;;;;;;7.75;2.08;;;;;;;9.81;100.00;99748.16;5055543;28;20478;-75
2024/03/12 10:40:58;;;;;;;1.10;1.00;;;;;;;9.80;100.00;99754.56;5039248;28;20029;-75
2024/03/12 10:43:24;;;;;;;3.63;1.92;;;;;;;9.87;100.00;99750.91;5038719;28;20040;-75
2024/03/12 10:45:50;;;;;;;3.00;1.33;;;;;;;10.00;100.00;99754.69;5038760;28;20048;-75
2024/03/12 10:48:17;;;;;;;2.20;1.30;;;;;;;10.13;100.00;99750.25;5071490;28;20035;-76
2024/03/12 10:50:43;;;;;;;5.72;2.22;;;;;;;10.18;100.00;99749.66;5038879;28;20065;-75
2024/03/12 10:53:11;;;;;;;8.57;2.95;;;;;;;10.26;100.00;99751.34;5040301;28;20024;-75
2024/03/12 10:55:38;;;;;;;2.88;1.42;;;;;;;10.48;100.00;99749.44;5075511;28;20104;-75
2024/03/12 10:58:06;;;;;;;4.45;2.20;;;;;;;10.43;100.00;99747.34;5075637;28;20115;-75
2024/03/12 11:00:35;;;;;;;2.67;1.10;;;;;;;10.53;100.00;99746.94;5075576;28;20035;-75
2024/03/12 11:03:01;;;;;;;2.90;1.00;;;;;;;10.38;100.00;99748.97;5059107;28;20119;-75
2024/03/12 11:05:27;;;;;;;4.70;1.60;;;;;;;10.55;100.00;99747.59;5042555;28;20119;-75
2024/03/12 11:07:57;;;;;;;2.00;1.00;;;;;;;10.62;100.00;99753.00;5042571;28;20036;-75
2024/03/12 11:10:28;;;;;;;12.43;1.70;;;;;;;10.68;100.00;99755.72;5042420;28;20478;-76
2024/03/12 11:12:54;;;;;;;3.03;1.27;;;;;;;10.79;100.00;99760.50;5058660;28;20044;-75
2024/03/12 11:15:20;;;;;;;3.25;1.65;;;;;;;10.93;100.00;99764.09;5075422;28;20382;-75
2024/03/12 11:17:50;;;;;;;2.40;1.30;;;;;;;10.88;100.00;99761.16;5059062;28;20037;-75
2024/03/12 11:20:22;;;;;;;2.42;1.65;;;;;;;10.86;100.00;99760.53;5042119;28;20494;-76
2024/03/12 11:22:52;;;;;;;2.88;1.52;;;;;;;10.87;100.00;99756.81;5042251;28;20060;-76
2024/03/12 11:25:49;;;;;;;6.45;1.75;;;;;;;10.83;100.00;99752.88;5042103;28;20040;-75
2024/03/12 11:28:15;;;;;;;3.22;1.90;;;;;;;10.72;100.00;99756.97;5037687;28;20036;-76
2024/03/12 11:30:46;;;;;;;7.53;3.28;;;;;;;10.78;100.00;99752.66;5075007;28;20040;-75
2024/03/12 11:33:37;;;;;;;3.78;2.33;;;;;;;10.95;100.00;99756.63;5075229;28;20090;-75
2024/03/12 11:36:08;;;;;;;16.63;7.47;;;;;;;11.06;100.00;99751.69;5058473;28;20063;-75
2024/03/12 11:38:34;;;;;;;8.40;2.42;;;;;;;11.04;100.00;99745.69;5042003;28;20118;-75
2024/03/12 11:41:02;;;;;;;9.10;3.50;;;;;;;11.02;100.00;99748.56;5056541;28;20103;-75
2024/03/12 11:43:38;;;;;;;3.55;1.25;;;;;;;11.00;100.00;99740.69;5058120;28;20024;-75
2024/03/12 11:46:07;;;;;;;2.40;1.52;;;;;;;11.25;100.00;99740.16;5075586;28;20043;-75
2024/03/12 11:48:42;;;;;;;6.03;3.33;;;;;;;11.65;100.00;99740.97;5058316;28;20032;-75